Time;durP1;ratioP1;P1;durP2;ratioP2;P2;SDS_P1;SDS_P2;PMS_P1;PMS_P2;Temp;Humidity;BMP_temperature;BMP_pressure;BME280_temperature;BME280_humidity;BME280_pressure;Samples;Min_cycle;Max_cycle;Signal;HPM_P1;HPM_P2
2023/07/24 00:01:59;;;;;;;7.35;6.65;;;17.70;99.90;;;;;;4901921;28;89547;-38
2023/07/24 00:04:25;;;;;;;7.78;6.13;;;17.70;99.90;;;;;;4902549;28;90383;-41
2023/07/24 00:06:51;;;;;;;8.98;6.22;;;17.70;99.90;;;;;;4902533;28;90547;-39
2023/07/24 00:09:16;;;;;;;9.18;6.93;;;17.70;99.90;;;;;;4902663;28;89692;-36
2023/07/24 00:11:42;;;;;;;7.65;6.68;;;17.70;99.90;;;;;;4902758;28;90243;-37
2023/07/24 00:14:07;;;;;;;10.20;6.18;;;17.70;99.90;;;;;;4902393;28;88872;-38
2023/07/24 00:16:33;;;;;;;7.78;7.03;;;17.70;99.90;;;;;;4902586;28;91186;-34
2023/07/24 00:18:59;;;;;;;8.07;7.28;;;17.70;99.90;;;;;;4902334;28;89216;-36
2023/07/24 00:21:24;;;;;;;8.50;7.70;;;17.70;99.90;;;;;;4902793;28;89355;-37
2023/07/24 00:23:50;;;;;;;8.18;6.90;;;17.70;99.90;;;;;;4902385;28;87491;-36
2023/07/24 00:26:16;;;;;;;8.43;7.45;;;17.70;99.90;;;;;;4902908;28;90115;-40
2023/07/24 00:28:41;;;;;;;11.50;8.23;;;17.60;99.90;;;;;;4901446;28;91192;-37
2023/07/24 00:31:07;;;;;;;8.77;7.93;;;17.60;99.90;;;;;;4902219;28;90601;-35
2023/07/24 00:33:32;;;;;;;11.43;8.52;;;17.60;99.90;;;;;;4902974;28;87673;-33
2023/07/24 00:35:58;;;;;;;10.00;8.18;;;17.50;99.90;;;;;;4902058;28;89644;-36
2023/07/24 00:38:24;;;;;;;10.10;9.07;;;17.50;99.90;;;;;;4901554;28;89350;-40
2023/07/24 00:40:50;;;;;;;10.55;9.02;;;17.50;99.90;;;;;;4902434;28;88490;-36
2023/07/24 00:43:16;;;;;;;11.27;9.70;;;17.50;99.90;;;;;;4902135;28;87930;-34
2023/07/24 00:45:43;;;;;;;13.65;9.30;;;17.40;99.90;;;;;;4903049;28;90676;-35
2023/07/24 00:48:08;;;;;;;9.80;8.55;;;17.40;99.90;;;;;;4901627;28;89928;-36
2023/07/24 00:50:35;;;;;;;13.55;10.52;;;17.30;99.90;;;;;;4902414;28;89927;-40
2023/07/24 00:53:01;;;;;;;13.55;10.18;;;17.30;99.90;;;;;;4901357;28;89287;-32
2023/07/24 00:55:27;;;;;;;10.07;9.05;;;17.30;99.90;;;;;;4900545;28;90133;-33
2023/07/24 00:57:54;;;;;;;15.40;10.80;;;17.20;99.90;;;;;;4902417;28;89819;-34
2023/07/24 01:00:20;;;;;;;12.57;10.77;;;17.30;99.90;;;;;;4901428;28;89762;-41
2023/07/24 01:02:46;;;;;;;12.48;10.10;;;17.30;99.90;;;;;;4899257;28;89641;-44
2023/07/24 01:05:14;;;;;;;10.48;9.30;;;17.20;99.90;;;;;;4901391;28;89627;-34
2023/07/24 01:07:40;;;;;;;10.48;9.48;;;17.20;99.90;;;;;;4901220;28;90733;-39
2023/07/24 01:10:06;;;;;;;10.98;9.88;;;17.20;99.90;;;;;;4900640;28;90363;-34
2023/07/24 01:12:36;;;;;;;13.00;10.45;;;17.20;99.90;;;;;;4902169;28;89550;-40
2023/07/24 01:15:28;;;;;;;10.48;9.48;;;17.10;99.90;;;;;;4900562;28;90117;-35
2023/07/24 01:18:09;;;;;;;11.88;10.63;;;17.10;99.90;;;;;;4893591;28;90722;-34
2023/07/24 01:20:37;;;;;;;12.95;9.70;;;17.10;99.90;;;;;;4899328;28;90091;-32
2023/07/24 01:23:27;;;;;;;17.23;10.68;;;17.10;99.90;;;;;;4901652;28;89343;-32
2023/07/24 01:26:02;;;;;;;11.35;9.25;;;17.10;99.90;;;;;;4899574;28;90792;-34
2023/07/24 01:28:28;;;;;;;13.48;10.30;;;17.00;99.90;;;;;;4900468;28;90157;-39
2023/07/24 01:30:55;;;;;;;11.05;9.80;;;17.00;99.90;;;;;;4901029;28;90489;-34
2023/07/24 01:33:22;;;;;;;12.10;10.85;;;16.90;99.90;;;;;;4899863;28;88321;-39
2023/07/24 01:36:08;;;;;;;12.18;10.43;;;16.90;99.90;;;;;;4901804;28;90316;-36
2023/07/24 01:38:35;;;;;;;12.55;11.25;;;16.90;99.90;;;;;;4898715;28;89992;-36
2023/07/24 01:41:02;;;;;;;13.43;10.73;;;16.90;99.90;;;;;;4899806;28;92543;-40
2023/07/24 01:43:29;;;;;;;12.05;9.70;;;16.90;99.90;;;;;;4899554;28;88999;-38
2023/07/24 01:45:54;;;;;;;11.10;9.50;;;16.80;99.90;;;;;;4901725;28;90339;-44
2023/07/24 01:48:20;;;;;;;15.05;11.27;;;16.80;99.90;;;;;;4901176;28;90296;-38
2023/07/24 01:50:46;;;;;;;11.18;9.93;;;16.80;99.90;;;;;;4900024;28;89485;-40
2023/07/24 01:53:11;;;;;;;12.82;10.48;;;16.80;99.90;;;;;;4901122;28;89109;-32
2023/07/24 01:55:37;;;;;;;13.30;10.20;;;16.80;99.90;;;;;;4900139;28;90271;-34
2023/07/24 01:58:03;;;;;;;13.65;9.98;;;16.80;99.90;;;;;;4900784;28;90264;-39
2023/07/24 02:00:28;;;;;;;13.65;8.95;;;16.80;99.90;;;;;;4899676;28;89603;-42
2023/07/24 02:02:54;;;;;;;10.70;9.60;;;16.70;99.90;;;;;;4901240;28;89796;-35
2023/07/24 02:05:20;;;;;;;11.23;9.98;;;16.70;99.90;;;;;;4900679;28;90736;-37
2023/07/24 02:07:45;;;;;;;10.88;9.57;;;16.70;99.90;;;;;;4899078;28;91077;-34
2023/07/24 02:10:11;;;;;;;11.05;9.13;;;16.70;99.90;;;;;;4900756;28;90426;-39
2023/07/24 02:12:36;;;;;;;12.18;9.60;;;16.70;99.90;;;;;;4901201;28;88539;-40
2023/07/24 02:15:02;;;;;;;11.18;8.73;;;16.70;99.90;;;;;;4900492;28;90310;-36
2023/07/24 02:17:28;;;;;;;11.48;9.40;;;16.70;99.90;;;;;;4895685;28;90381;-38
2023/07/24 02:19:54;;;;;;;10.20;8.63;;;16.60;99.90;;;;;;4898041;28;89640;-34
2023/07/24 02:22:19;;;;;;;8.95;8.13;;;16.60;99.90;;;;;;4902010;28;89937;-34
2023/07/24 02:24:45;;;;;;;9.55;8.52;;;16.60;99.90;;;;;;4900615;28;90070;-32
2023/07/24 02:27:24;;;;;;;10.63;8.73;;;16.60;99.90;;;;;;4900500;28;89574;-36
2023/07/24 02:29:50;;;;;;;10.40;8.55;;;16.60;99.90;;;;;;4901334;28;89928;-32
2023/07/24 02:32:16;;;;;;;11.35;9.93;;;16.60;99.90;;;;;;4899722;28;88906;-39
2023/07/24 02:34:41;;;;;;;11.23;9.18;;;16.60;99.90;;;;;;4900800;28;90149;-42
2023/07/24 02:37:07;;;;;;;10.05;8.63;;;16.60;99.90;;;;;;4900535;28;91168;-35
2023/07/24 02:39:33;;;;;;;12.45;9.15;;;16.60;99.90;;;;;;4900469;28;89916;-35
2023/07/24 02:41:58;;;;;;;10.50;8.88;;;16.60;99.90;;;;;;4901207;28;89273;-41
2023/07/24 02:44:24;;;;;;;11.50;8.38;;;16.60;99.90;;;;;;4900716;28;90480;-38
2023/07/24 02:46:49;;;;;;;10.00;9.02;;;16.60;99.90;;;;;;4900684;28;89872;-39
2023/07/24 02:49:15;;;;;;;12.35;8.80;;;16.60;99.90;;;;;;4900326;28;89773;-38
2023/07/24 02:51:41;;;;;;;11.40;8.95;;;16.60;99.90;;;;;;4899850;28;88458;-38
2023/07/24 02:54:12;;;;;;;13.55;8.65;;;16.60;99.90;;;;;;4900556;28;90424;-36
2023/07/24 02:56:39;;;;;;;10.85;8.70;;;16.70;99.90;;;;;;4888937;28;90473;-34
2023/07/24 02:59:04;;;;;;;11.85;9.27;;;16.70;99.90;;;;;;4899936;28;91193;-38
2023/07/24 03:01:30;;;;;;;9.85;8.57;;;16.70;99.90;;;;;;4900319;28;89347;-38
2023/07/24 03:03:55;;;;;;;10.55;9.30;;;16.70;99.90;;;;;;4900124;28;91319;-37
2023/07/24 03:06:21;;;;;;;11.43;9.07;;;16.70;99.90;;;;;;4899381;28;90535;-35
2023/07/24 03:08:47;;;;;;;20.17;9.93;;;16.70;99.90;;;;;;4900168;28;87976;-40
2023/07/24 03:11:12;;;;;;;10.43;7.90;;;16.70;99.90;;;;;;4900831;28;88577;-38
2023/07/24 03:13:40;;;;;;;10.15;8.80;;;16.70;99.90;;;;;;4900096;28;90273;-35
2023/07/24 03:16:06;;;;;;;9.35;8.27;;;16.70;99.90;;;;;;4900190;28;89664;-43
2023/07/24 03:18:32;;;;;;;8.73;7.85;;;16.70;99.90;;;;;;4899150;28;90272;-39
2023/07/24 03:20:59;;;;;;;9.45;8.57;;;16.60;99.90;;;;;;4901026;28;89641;-37
2023/07/24 03:23:24;;;;;;;10.20;8.52;;;16.60;99.90;;;;;;4900399;28;91029;-35
2023/07/24 03:25:50;;;;;;;14.10;8.30;;;16.60;99.90;;;;;;4900457;28;89345;-34
2023/07/24 03:28:16;;;;;;;12.38;9.30;;;16.60;99.90;;;;;;4902627;28;90093;-42
2023/07/24 03:30:41;;;;;;;9.23;7.78;;;16.70;99.90;;;;;;4903328;28;88274;-36
2023/07/24 03:33:07;;;;;;;10.38;8.43;;;16.60;99.90;;;;;;4903790;28;91212;-34
2023/07/24 03:35:33;;;;;;;9.18;8.25;;;16.70;99.90;;;;;;4903883;28;89244;-40
2023/07/24 03:37:59;;;;;;;9.20;8.10;;;16.60;99.90;;;;;;4902459;28;90648;-42
2023/07/24 03:40:25;;;;;;;9.20;7.80;;;16.60;99.90;;;;;;4902182;28;87812;-38
2023/07/24 03:42:50;;;;;;;9.75;8.75;;;16.70;99.90;;;;;;4902921;28;90379;-39
2023/07/24 03:45:16;;;;;;;9.65;8.35;;;16.60;99.90;;;;;;4903106;28;90717;-34
2023/07/24 03:47:42;;;;;;;12.20;9.27;;;16.70;99.90;;;;;;4903224;28;91986;-34
2023/07/24 03:50:08;;;;;;;9.23;6.97;;;16.60;99.90;;;;;;4903359;28;88500;-40
2023/07/24 03:52:33;;;;;;;11.07;8.15;;;16.70;99.90;;;;;;4902400;28;90931;-33
2023/07/24 03:54:59;;;;;;;9.77;8.07;;;16.70;99.90;;;;;;4902857;28;90115;-34
2023/07/24 03:57:25;;;;;;;10.52;8.80;;;16.70;99.90;;;;;;4902852;28;89297;-34
2023/07/24 03:59:50;;;;;;;10.07;9.10;;;16.70;99.90;;;;;;4903192;28;89246;-35
2023/07/24 04:02:16;;;;;;;11.43;8.93;;;16.60;99.90;;;;;;4902956;28;90334;-39
2023/07/24 04:04:41;;;;;;;12.07;9.85;;;16.60;99.90;;;;;;4902512;28;89656;-35
2023/07/24 04:07:07;;;;;;;13.70;10.65;;;16.70;99.90;;;;;;4901067;28;89749;-42
2023/07/24 04:09:33;;;;;;;9.55;8.63;;;16.60;99.90;;;;;;4901553;28;89944;-34
2023/07/24 04:11:58;;;;;;;11.27;8.93;;;16.70;99.90;;;;;;4901861;28;90560;-34
2023/07/24 04:14:24;;;;;;;11.93;10.73;;;16.70;99.90;;;;;;4903121;28;89610;-40
2023/07/24 04:16:50;;;;;;;9.93;8.88;;;16.70;99.90;;;;;;4901371;28;89860;-34
2023/07/24 04:19:15;;;;;;;10.95;9.52;;;16.70;99.90;;;;;;4902422;28;89415;-43
2023/07/24 04:21:41;;;;;;;11.25;9.98;;;16.60;99.90;;;;;;4898971;28;89855;-36
2023/07/24 04:24:07;;;;;;;10.70;9.45;;;16.60;99.90;;;;;;4893106;28;89572;-35
2023/07/24 04:26:32;;;;;;;11.80;10.48;;;16.60;99.90;;;;;;4903174;28;89732;-36
2023/07/24 04:28:58;;;;;;;12.95;9.70;;;16.60;99.90;;;;;;4901418;28;88075;-36
2023/07/24 04:31:23;;;;;;;12.27;10.07;;;16.70;99.90;;;;;;4900430;28;91590;-40
2023/07/24 04:33:49;;;;;;;11.88;9.90;;;16.60;99.90;;;;;;4890802;28;91573;-41
2023/07/24 04:36:15;;;;;;;13.95;11.13;;;16.60;99.90;;;;;;4900058;28;91080;-42
2023/07/24 04:38:40;;;;;;;14.50;11.45;;;16.70;99.90;;;;;;4902006;28;89417;-36
2023/07/24 04:41:06;;;;;;;10.80;9.73;;;16.70;99.90;;;;;;4901213;28;90444;-38
2023/07/24 04:43:31;;;;;;;11.85;10.65;;;16.70;99.90;;;;;;4902723;28;90586;-36
2023/07/24 04:45:57;;;;;;;12.55;10.75;;;16.70;99.90;;;;;;4901394;28;89813;-33
2023/07/24 04:48:23;;;;;;;11.93;10.07;;;16.70;99.90;;;;;;4890823;28;88486;-40
2023/07/24 04:50:55;;;;;;;13.07;11.35;;;16.70;99.90;;;;;;4900733;28;89957;-37
2023/07/24 04:53:21;;;;;;;13.07;10.80;;;16.70;99.90;;;;;;4902053;28;89947;-34
2023/07/24 04:55:47;;;;;;;12.07;10.80;;;16.70;99.90;;;;;;4900875;28;90593;-38
2023/07/24 04:58:13;;;;;;;13.68;10.45;;;16.70;99.90;;;;;;4892532;28;89951;-42
2023/07/24 05:00:38;;;;;;;14.57;11.88;;;16.70;99.90;;;;;;4901139;28;89857;-37
2023/07/24 05:03:05;;;;;;;13.10;11.60;;;16.70;99.90;;;;;;4900826;28;89076;-43
2023/07/24 05:05:31;;;;;;;14.55;12.07;;;16.70;99.90;;;;;;4901003;28;89489;-34
2023/07/24 05:07:57;;;;;;;12.20;11.10;;;16.70;99.90;;;;;;4900265;28;88747;-41
2023/07/24 05:10:22;;;;;;;14.55;11.45;;;16.70;99.90;;;;;;4900567;28;90316;-39
2023/07/24 05:12:48;;;;;;;13.07;11.18;;;16.70;99.90;;;;;;4901589;28;90070;-35
2023/07/24 05:15:16;;;;;;;13.27;11.82;;;16.80;99.90;;;;;;4900872;28;90312;-37
2023/07/24 05:17:45;;;;;;;11.98;10.75;;;16.70;99.90;;;;;;4891282;28;88885;-36
2023/07/24 05:20:11;;;;;;;14.43;10.40;;;16.70;99.90;;;;;;4898763;28;90238;-34
2023/07/24 05:22:37;;;;;;;13.57;10.27;;;16.70;99.90;;;;;;4898846;28;89760;-42
2023/07/24 05:25:02;;;;;;;14.05;11.68;;;16.70;99.90;;;;;;4897876;28;90395;-43
2023/07/24 05:27:29;;;;;;;12.48;11.13;;;16.70;99.90;;;;;;4898962;28;89293;-35
2023/07/24 05:29:55;;;;;;;12.73;11.27;;;16.70;99.90;;;;;;4898697;28;89957;-35
2023/07/24 05:32:21;;;;;;;14.80;11.13;;;16.70;99.90;;;;;;4898809;28;90617;-44
2023/07/24 05:34:46;;;;;;;13.95;10.98;;;16.70;99.90;;;;;;4897838;28;89693;-34
2023/07/24 05:37:12;;;;;;;11.05;9.95;;;16.70;99.90;;;;;;4899408;28;88978;-38
2023/07/24 05:39:37;;;;;;;12.00;10.90;;;16.70;99.90;;;;;;4899961;28;90299;-34
2023/07/24 05:42:03;;;;;;;13.05;11.73;;;16.70;99.90;;;;;;4898315;28;89980;-33
2023/07/24 05:44:29;;;;;;;13.55;11.48;;;16.70;99.90;;;;;;4898156;28;89622;-41
2023/07/24 05:46:55;;;;;;;17.30;13.27;;;16.70;99.90;;;;;;4898244;28;89258;-36
2023/07/24 05:49:20;;;;;;;13.32;11.05;;;16.80;99.90;;;;;;4898066;28;91238;-35
2023/07/24 05:51:46;;;;;;;17.20;10.35;;;16.80;99.90;;;;;;4897816;28;92409;-32
2023/07/24 05:54:11;;;;;;;13.88;10.88;;;16.80;99.90;;;;;;4897571;28;89442;-37
2023/07/24 05:56:37;;;;;;;16.70;12.93;;;16.90;99.90;;;;;;4898924;28;88612;-40
2023/07/24 05:59:03;;;;;;;17.67;11.10;;;16.90;99.90;;;;;;4898393;28;90826;-40
2023/07/24 06:01:28;;;;;;;16.15;13.32;;;16.90;99.90;;;;;;4898673;28;89808;-36
2023/07/24 06:03:54;;;;;;;18.95;12.25;;;17.00;99.90;;;;;;4898346;28;89697;-34
2023/07/24 06:06:20;;;;;;;14.25;11.40;;;17.00;99.90;;;;;;4898278;28;89360;-40
2023/07/24 06:08:47;;;;;;;13.80;12.40;;;17.00;99.90;;;;;;4898094;28;90632;-32
2023/07/24 06:11:13;;;;;;;16.35;13.55;;;17.10;99.90;;;;;;4897361;28;90071;-39
2023/07/24 06:13:38;;;;;;;12.65;11.23;;;17.10;99.90;;;;;;4889754;28;90293;-43
2023/07/24 06:16:04;;;;;;;16.02;13.20;;;17.10;99.90;;;;;;4897500;28;88448;-41
2023/07/24 06:18:30;;;;;;;13.43;11.98;;;17.20;99.90;;;;;;4897197;28;90404;-40
2023/07/24 06:20:55;;;;;;;13.45;12.05;;;17.20;99.90;;;;;;4899023;28;89420;-33
2023/07/24 06:23:21;;;;;;;13.15;10.45;;;17.20;99.90;;;;;;4897320;28;89556;-38
2023/07/24 06:25:47;;;;;;;15.85;11.07;;;17.30;99.90;;;;;;4898773;28;89057;-41
2023/07/24 06:28:12;;;;;;;12.27;10.88;;;17.30;99.90;;;;;;4897230;28;91074;-38
2023/07/24 06:30:39;;;;;;;11.80;10.60;;;17.20;99.90;;;;;;4897678;28;89761;-36
2023/07/24 06:33:04;;;;;;;12.98;10.30;;;17.30;99.90;;;;;;4898240;28;89623;-42
2023/07/24 06:35:30;;;;;;;12.45;10.82;;;17.40;99.90;;;;;;4884870;28;90433;-35
2023/07/24 06:37:56;;;;;;;12.98;10.02;;;17.50;99.90;;;;;;4898181;28;90098;-39
2023/07/24 06:40:21;;;;;;;13.70;11.32;;;17.50;99.90;;;;;;4885210;28;89795;-34
2023/07/24 06:42:47;;;;;;;12.07;10.88;;;17.60;99.90;;;;;;4897670;28;89645;-42
2023/07/24 06:45:13;;;;;;;14.43;11.63;;;17.70;99.90;;;;;;4898524;28;89755;-37
2023/07/24 06:47:38;;;;;;;11.57;10.45;;;18.00;99.90;;;;;;4897078;28;90902;-38
2023/07/24 06:50:05;;;;;;;12.13;10.90;;;18.00;99.90;;;;;;4898509;28;89926;-37
2023/07/24 06:52:32;;;;;;;13.35;10.75;;;18.10;99.90;;;;;;4897617;28;90066;-41
2023/07/24 06:54:58;;;;;;;14.07;11.43;;;18.20;99.90;;;;;;4897962;28;89907;-43
2023/07/24 06:57:24;;;;;;;20.30;12.98;;;18.20;99.90;;;;;;4897571;28;90285;-37
2023/07/24 06:59:49;;;;;;;12.10;10.50;;;18.40;99.90;;;;;;4896917;28;90941;-39
2023/07/24 07:02:15;;;;;;;13.25;11.82;;;18.50;99.90;;;;;;4897152;28;90912;-35
2023/07/24 07:04:41;;;;;;;14.07;10.90;;;18.40;99.90;;;;;;4900184;28;87752;-34
2023/07/24 07:07:07;;;;;;;12.48;9.75;;;18.40;99.90;;;;;;4900498;28;90036;-37
2023/07/24 07:09:32;;;;;;;12.30;10.60;;;18.40;99.90;;;;;;4899186;28;89443;-40
2023/07/24 07:11:58;;;;;;;11.85;10.18;;;18.60;99.90;;;;;;4899683;28;92160;-37
2023/07/24 07:14:24;;;;;;;11.35;9.75;;;18.90;99.90;;;;;;4900942;28;89717;-39
2023/07/24 07:16:49;;;;;;;12.40;9.30;;;19.00;99.90;;;;;;4901762;28;90646;-35
2023/07/24 07:19:15;;;;;;;13.70;9.75;;;18.80;99.90;;;;;;4901015;28;89688;-43
2023/07/24 07:21:40;;;;;;;10.90;9.18;;;19.00;99.90;;;;;;4901385;28;89915;-39
2023/07/24 07:24:06;;;;;;;12.85;9.75;;;18.80;99.90;;;;;;4900478;28;90234;-41
2023/07/24 07:26:33;;;;;;;11.15;9.77;;;18.90;99.90;;;;;;4902004;28;89883;-35
2023/07/24 07:28:58;;;;;;;12.77;10.48;;;19.00;99.90;;;;;;4896565;28;89723;-35
2023/07/24 07:31:24;;;;;;;13.13;9.93;;;19.20;99.90;;;;;;4900454;28;89876;-36
2023/07/24 07:33:50;;;;;;;14.07;9.85;;;19.30;99.90;;;;;;4896027;28;89327;-34
2023/07/24 07:36:15;;;;;;;9.82;8.82;;;19.50;99.90;;;;;;4894866;28;90213;-43
2023/07/24 07:38:41;;;;;;;13.18;10.57;;;19.70;99.90;;;;;;4900753;28;89843;-33
2023/07/24 07:41:07;;;;;;;12.23;10.07;;;19.70;99.90;;;;;;4899911;28;89711;-35
2023/07/24 07:43:32;;;;;;;12.80;10.23;;;19.70;99.90;;;;;;4900530;28;88140;-34
2023/07/24 07:45:59;;;;;;;10.25;9.20;;;19.50;99.90;;;;;;4899801;28;90485;-38
2023/07/24 07:48:25;;;;;;;13.77;10.25;;;19.50;99.90;;;;;;4900385;28;91155;-34
2023/07/24 07:50:53;;;;;;;11.93;9.80;;;19.50;99.90;;;;;;4901016;28;90882;-41
2023/07/24 07:53:19;;;;;;;11.82;10.20;;;19.50;99.90;;;;;;4899909;28;89486;-40
2023/07/24 07:55:44;;;;;;;11.95;8.77;;;19.40;99.90;;;;;;4899871;28;89847;-42
2023/07/24 07:58:10;;;;;;;12.50;9.90;;;19.50;99.90;;;;;;4900915;28;90294;-34
2023/07/24 08:00:35;;;;;;;12.18;9.35;;;19.40;99.90;;;;;;4901105;28;90385;-38
2023/07/24 08:03:01;;;;;;;12.07;8.75;;;19.30;99.90;;;;;;4901061;28;89055;-35
2023/07/24 08:05:27;;;;;;;12.43;9.68;;;19.30;99.90;;;;;;4899772;28;90587;-34
2023/07/24 08:07:53;;;;;;;12.32;9.57;;;19.40;99.90;;;;;;4928118;23;89644;-35
2023/07/24 08:10:19;;;;;;;11.77;9.43;;;19.30;99.90;;;;;;4881508;28;90058;-36
2023/07/24 08:12:44;;;;;;;10.82;9.15;;;19.30;99.90;;;;;;4880927;28;89954;-35
2023/07/24 08:15:11;;;;;;;10.23;8.70;;;19.50;99.90;;;;;;4881164;28;89532;-33
2023/07/24 08:17:36;;;;;;;9.23;7.88;;;19.70;99.90;;;;;;4880918;28;90042;-39
2023/07/24 08:20:02;;;;;;;11.15;7.78;;;20.10;99.90;;;;;;4880809;28;90161;-38
2023/07/24 08:22:28;;;;;;;9.10;6.60;;;20.70;99.90;;;;;;4882163;28;90455;-34
2023/07/24 08:24:54;;;;;;;8.15;7.40;;;21.20;99.90;;;;;;4881262;28;89867;-36
2023/07/24 08:27:19;;;;;;;13.55;8.93;;;21.40;99.90;;;;;;4881151;28;89220;-34
2023/07/24 08:29:45;;;;;;;9.23;8.32;;;21.60;99.90;;;;;;4881103;28;89901;-38
2023/07/24 08:32:11;;;;;;;9.38;7.82;;;21.50;99.90;;;;;;4880779;28;89866;-32
2023/07/24 08:34:36;;;;;;;11.48;8.23;;;21.00;99.90;;;;;;4881404;28;89773;-35
2023/07/24 08:37:02;;;;;;;8.40;7.63;;;20.70;99.90;;;;;;4881055;28;90699;-41
2023/07/24 08:39:27;;;;;;;10.98;8.10;;;20.60;99.90;;;;;;4881507;28;90335;-33
2023/07/24 08:41:53;;;;;;;8.00;7.07;;;20.30;99.90;;;;;;4881287;28;89427;-34
2023/07/24 08:44:20;;;;;;;9.68;7.07;;;20.40;99.90;;;;;;4880744;28;90638;-33
2023/07/24 08:46:47;;;;;;;9.37;7.30;;;20.50;99.90;;;;;;4881562;28;89856;-39
2023/07/24 08:49:13;;;;;;;13.20;8.45;;;20.60;99.90;;;;;;4881032;28;89767;-37
2023/07/24 08:51:41;;;;;;;11.38;8.68;;;20.70;99.90;;;;;;4881932;28;88935;-35
2023/07/24 08:54:07;;;;;;;16.27;8.73;;;20.90;99.90;;;;;;4881627;28;90243;-39
2023/07/24 08:56:33;;;;;;;8.65;7.05;;;21.30;99.90;;;;;;4880665;28;89974;-39
2023/07/24 08:58:59;;;;;;;8.18;7.38;;;21.10;99.90;;;;;;4881601;28;89802;-40
2023/07/24 09:01:25;;;;;;;9.00;8.10;;;21.00;99.90;;;;;;4879868;28;88652;-35
2023/07/24 09:03:51;;;;;;;10.80;7.55;;;21.00;99.90;;;;;;4865788;28;89936;-37
2023/07/24 09:06:16;;;;;;;8.90;7.60;;;21.00;99.90;;;;;;4862641;28;90142;-34
2023/07/24 09:08:43;;;;;;;9.75;7.68;;;21.00;99.90;;;;;;4862115;28;90825;-33
2023/07/24 09:11:13;;;;;;;12.07;9.70;;;21.20;99.90;;;;;;4862631;28;89048;-39
2023/07/24 09:13:42;;;;;;;15.98;8.57;;;20.90;99.90;;;;;;4866797;28;90442;-44
2023/07/24 09:16:08;;;;;;;9.70;7.95;;;21.10;99.90;;;;;;4868594;28;89726;-42
2023/07/24 09:18:42;;;;;;;7.85;6.80;;;21.00;99.90;;;;;;4862171;28;90331;-34
2023/07/24 09:21:09;;;;;;;9.23;8.18;;;20.90;99.90;;;;;;4862043;28;89144;-43
2023/07/24 09:23:34;;;;;;;9.98;7.40;;;20.90;99.90;;;;;;4862203;28;90290;-41
2023/07/24 09:26:06;;;;;;;8.80;7.93;;;20.90;99.90;;;;;;4873631;28;90761;-41
2023/07/24 09:28:33;;;;;;;9.30;7.82;;;21.20;99.90;;;;;;4864483;28;90515;-34
2023/07/24 09:31:04;;;;;;;9.45;8.48;;;21.20;99.90;;;;;;4871616;28;89284;-39
2023/07/24 09:33:38;;;;;;;12.10;8.10;;;21.40;99.90;;;;;;4877004;28;90091;-35
2023/07/24 09:36:05;;;;;;;10.05;6.47;;;21.80;99.90;;;;;;4880946;28;90303;-38
2023/07/24 09:38:31;;;;;;;8.60;7.05;;;22.00;99.90;;;;;;4879979;28;90508;-35
2023/07/24 09:40:57;;;;;;;11.27;7.47;;;22.00;99.90;;;;;;4881024;28;89723;-37
2023/07/24 09:43:25;;;;;;;7.35;6.28;;;21.80;99.90;;;;;;4879421;28;89001;-35
2023/07/24 09:45:51;;;;;;;7.63;6.78;;;21.70;99.90;;;;;;4880141;28;91030;-35
2023/07/24 09:48:19;;;;;;;7.88;6.65;;;21.60;99.90;;;;;;4877979;28;89206;-35
2023/07/24 09:50:46;;;;;;;9.73;8.07;;;21.70;99.90;;;;;;4878561;28;90040;-35
2023/07/24 09:53:20;;;;;;;11.13;7.22;;;21.60;99.90;;;;;;4878140;28;90272;-36
2023/07/24 09:55:59;;;;;;;8.85;7.50;;;21.70;99.90;;;;;;4878696;28;89645;-36
2023/07/24 09:58:26;;;;;;;8.15;6.65;;;21.60;99.90;;;;;;4874982;28;89336;-39
2023/07/24 10:00:53;;;;;;;8.40;7.30;;;21.60;99.90;;;;;;4875105;28;89604;-44
2023/07/24 10:03:20;;;;;;;9.73;6.70;;;21.40;99.90;;;;;;4881023;28;89898;-36
2023/07/24 10:05:47;;;;;;;7.78;7.07;;;21.20;99.90;;;;;;4861478;28;89621;-39
2023/07/24 10:08:14;;;;;;;7.82;7.03;;;20.70;99.90;;;;;;4872663;28;89908;-43
2023/07/24 10:10:40;;;;;;;10.23;8.02;;;20.80;99.90;;;;;;4863423;28;89716;-36
2023/07/24 10:13:07;;;;;;;11.15;7.85;;;21.20;99.90;;;;;;4861051;28;90719;-39
2023/07/24 10:15:33;;;;;;;11.30;8.60;;;21.60;99.90;;;;;;4873094;28;90672;-35
2023/07/24 10:18:06;;;;;;;13.35;7.72;;;21.80;99.90;;;;;;4873518;28;90442;-34
2023/07/24 10:20:35;;;;;;;7.30;6.70;;;22.20;99.90;;;;;;4868702;28;89965;-34
2023/07/24 10:23:04;;;;;;;9.80;6.68;;;22.00;99.90;;;;;;4866209;28;90127;-39
2023/07/24 10:25:32;;;;;;;8.45;7.47;;;22.20;99.90;;;;;;4879675;28;89499;-43
2023/07/24 10:28:07;;;;;;;8.02;6.88;;;22.10;99.90;;;;;;4879924;28;89499;-37
2023/07/24 10:30:35;;;;;;;7.57;5.88;;;22.00;99.90;;;;;;4874971;28;88769;-39
2023/07/24 10:33:12;;;;;;;9.13;6.72;;;21.80;99.90;;;;;;4875027;28;89948;-33
2023/07/24 10:35:42;;;;;;;7.03;5.50;;;21.50;99.90;;;;;;4873376;28;89829;-36
2023/07/24 10:38:08;;;;;;;11.65;6.90;;;21.30;99.90;;;;;;4879044;28;90129;-41
2023/07/24 10:40:34;;;;;;;10.25;6.60;;;21.40;99.90;;;;;;4873614;28;90200;-34
2023/07/24 10:43:22;;;;;;;8.25;6.22;;;21.70;99.90;;;;;;4869073;28;90688;-35
2023/07/24 10:45:48;;;;;;;12.50;7.22;;;22.00;99.90;;;;;;4869095;28;89391;-36
2023/07/24 10:48:18;;;;;;;8.60;6.25;;;21.90;99.90;;;;;;4872213;28;90779;-43
2023/07/24 10:50:45;;;;;;;10.10;7.18;;;21.50;99.90;;;;;;4875200;28;88704;-33
2023/07/24 10:53:18;;;;;;;6.32;5.82;;;21.50;99.90;;;;;;4878388;28;90326;-38
2023/07/24 10:55:44;;;;;;;9.82;6.75;;;21.50;99.90;;;;;;4870579;28;90064;-38
2023/07/24 10:58:11;;;;;;;8.25;6.45;;;21.30;99.90;;;;;;4875572;28;90566;-32
2023/07/24 11:00:40;;;;;;;7.97;7.13;;;21.20;99.90;;;;;;4874798;28;89297;-39
2023/07/24 11:03:11;;;;;;;7.43;6.82;;;21.20;99.90;;;;;;4879527;28;90442;-40
2023/07/24 11:05:46;;;;;;;7.00;6.28;;;21.10;99.90;;;;;;4873543;28;89933;-39
2023/07/24 11:08:20;;;;;;;7.80;6.82;;;21.40;99.90;;;;;;4858452;28;92357;-44
2023/07/24 11:10:47;;;;;;;7.57;6.15;;;21.50;99.90;;;;;;4860363;28;89788;-32
2023/07/24 11:13:13;;;;;;;9.75;7.65;;;21.80;99.90;;;;;;4861325;28;90812;-32
2023/07/24 11:15:39;;;;;;;8.68;7.28;;;22.10;99.90;;;;;;4872315;28;89848;-38
2023/07/24 11:18:08;;;;;;;10.10;8.40;;;22.20;99.90;;;;;;4859727;28;89246;-38
2023/07/24 11:20:38;;;;;;;7.97;7.28;;;22.10;99.90;;;;;;4858230;28;90279;-36
2023/07/24 11:23:03;;;;;;;7.72;6.93;;;22.20;99.90;;;;;;4874472;28;91776;-40
2023/07/24 11:25:29;;;;;;;7.32;6.63;;;22.30;99.90;;;;;;4870185;28;89955;-38
2023/07/24 11:27:55;;;;;;;7.53;6.22;;;22.30;99.90;;;;;;4875344;28;90292;-36
2023/07/24 11:30:21;;;;;;;9.43;6.63;;;22.10;99.90;;;;;;4873886;28;89394;-34
2023/07/24 11:32:49;;;;;;;6.93;6.22;;;22.30;99.90;;;;;;4870887;28;90364;-34
2023/07/24 11:35:15;;;;;;;7.03;6.40;;;22.20;99.90;;;;;;4874323;28;90122;-38
2023/07/24 11:37:40;;;;;;;8.15;6.82;;;22.10;99.90;;;;;;4862323;28;89410;-36
2023/07/24 11:40:14;;;;;;;7.72;6.40;;;22.20;99.90;;;;;;4863554;28;90362;-36
2023/07/24 11:42:43;;;;;;;10.93;7.13;;;22.20;99.90;;;;;;4860264;28;90019;-39
2023/07/24 11:45:11;;;;;;;9.70;6.75;;;22.10;99.90;;;;;;4860723;28;90248;-39
2023/07/24 11:47:50;;;;;;;10.55;6.05;;;22.00;99.90;;;;;;4862561;28;89026;-34
2023/07/24 11:50:17;;;;;;;7.32;6.43;;;22.20;99.90;;;;;;4870259;28;88062;-38
2023/07/24 11:52:50;;;;;;;7.55;6.88;;;22.00;99.90;;;;;;4870200;28;89866;-35
2023/07/24 11:55:19;;;;;;;7.22;6.45;;;21.90;99.90;;;;;;4863228;28;91543;-39
2023/07/24 11:58:04;;;;;;;10.13;6.75;;;22.00;99.90;;;;;;4864315;28;90646;-39
2023/07/24 12:00:33;;;;;;;6.65;6.05;;;22.10;99.90;;;;;;4865931;28;89244;-34
2023/07/24 12:03:00;;;;;;;6.88;6.28;;;22.20;99.90;;;;;;4881580;28;90887;-33
2023/07/24 12:05:26;;;;;;;6.57;5.45;;;22.30;99.90;;;;;;4879927;28;90029;-37
2023/07/24 12:07:54;;;;;;;7.22;5.63;;;22.30;99.90;;;;;;4881225;28;89761;-38
2023/07/24 12:10:27;;;;;;;6.88;6.18;;;22.30;99.90;;;;;;4881373;28;88926;-39
2023/07/24 12:12:55;;;;;;;6.68;5.97;;;22.20;99.90;;;;;;4881475;28;90283;-36
2023/07/24 12:15:20;;;;;;;9.27;7.07;;;22.00;99.90;;;;;;4881037;28;89738;-41
2023/07/24 12:17:46;;;;;;;9.02;6.38;;;21.80;99.90;;;;;;4880066;28;89164;-34
2023/07/24 12:20:12;;;;;;;9.52;6.45;;;21.80;99.90;;;;;;4880892;28;89550;-34
2023/07/24 12:22:38;;;;;;;8.13;6.13;;;21.90;99.90;;;;;;4881947;28;90563;-35
2023/07/24 12:25:05;;;;;;;7.28;6.57;;;21.90;99.90;;;;;;4875454;28;89878;-41
2023/07/24 12:27:31;;;;;;;6.77;6.17;;;22.10;99.90;;;;;;4861883;28;89390;-34
2023/07/24 12:29:57;;;;;;;10.25;6.82;;;22.20;99.90;;;;;;4869319;28;89275;-33
2023/07/24 12:32:23;;;;;;;8.52;5.90;;;22.30;99.90;;;;;;4862119;28;89981;-38
2023/07/24 12:34:50;;;;;;;8.57;6.47;;;22.10;99.90;;;;;;4873173;28;89872;-38
2023/07/24 12:37:16;;;;;;;14.88;7.57;;;22.10;99.90;;;;;;4866948;28;90781;-34